sensor_id;sensor_type;location;lat;lon;timestamp;temperature;humidity
23550;DHT22;11953;49.010;8.608;2022-07-29T00:01:59;22.10;99.90
23550;DHT22;11953;49.010;8.608;2022-07-29T00:04:47;22.00;99.90
23550;DHT22;11953;49.010;8.608;2022-07-29T00:07:34;21.90;99.90
23550;DHT22;11953;49.010;8.608;2022-07-29T00:10:20;22.00;99.90
23550;DHT22;11953;49.010;8.608;2022-07-29T00:13:07;22.00;99.90
23550;DHT22;11953;49.010;8.608;2022-07-29T00:15:54;22.10;99.90
23550;DHT22;11953;49.010;8.608;2022-07-29T00:18:49;22.00;99.90
23550;DHT22;11953;49.010;8.608;2022-07-29T00:21:37;21.70;99.90
23550;DHT22;11953;49.010;8.608;2022-07-29T00:24:23;21.60;99.90
23550;DHT22;11953;49.010;8.608;2022-07-29T00:27:10;21.50;99.90
23550;DHT22;11953;49.010;8.608;2022-07-29T00:29:56;21.50;99.90
23550;DHT22;11953;49.010;8.608;2022-07-29T00:32:43;21.60;99.90
23550;DHT22;11953;49.010;8.608;2022-07-29T00:35:30;21.40;99.90
23550;DHT22;11953;49.010;8.608;2022-07-29T00:38:34;21.40;99.90
23550;DHT22;11953;49.010;8.608;2022-07-29T00:41:21;21.40;99.90
23550;DHT22;11953;49.010;8.608;2022-07-29T00:44:08;21.40;99.90
23550;DHT22;11953;49.010;8.608;2022-07-29T00:46:55;21.40;99.90
23550;DHT22;11953;49.010;8.608;2022-07-29T00:49:42;21.30;99.90
23550;DHT22;11953;49.010;8.608;2022-07-29T00:52:29;21.50;99.90
23550;DHT22;11953;49.010;8.608;2022-07-29T00:55:17;21.70;99.90
23550;DHT22;11953;49.010;8.608;2022-07-29T00:58:04;21.70;99.90
23550;DHT22;11953;49.010;8.608;2022-07-29T01:00:51;21.80;99.90
23550;DHT22;11953;49.010;8.608;2022-07-29T01:03:38;21.90;99.90
23550;DHT22;11953;49.010;8.608;2022-07-29T01:06:25;21.90;99.90
23550;DHT22;11953;49.010;8.608;2022-07-29T01:09:13;21.70;99.90
23550;DHT22;11953;49.010;8.608;2022-07-29T01:12:01;21.50;99.90
23550;DHT22;11953;49.010;8.608;2022-07-29T01:14:49;21.30;99.90
23550;DHT22;11953;49.010;8.608;2022-07-29T01:17:41;21.30;99.90
23550;DHT22;11953;49.010;8.608;2022-07-29T01:20:51;21.20;99.90
23550;DHT22;11953;49.010;8.608;2022-07-29T01:24:04;21.10;99.90
23550;DHT22;11953;49.010;8.608;2022-07-29T01:26:59;20.90;99.90
23550;DHT22;11953;49.010;8.608;2022-07-29T01:29:55;20.80;99.90
23550;DHT22;11953;49.010;8.608;2022-07-29T01:32:46;20.70;99.90
23550;DHT22;11953;49.010;8.608;2022-07-29T01:35:39;20.70;99.90
23550;DHT22;11953;49.010;8.608;2022-07-29T01:38:27;20.90;99.90
23550;DHT22;11953;49.010;8.608;2022-07-29T01:41:16;20.80;99.90
23550;DHT22;11953;49.010;8.608;2022-07-29T01:44:11;20.70;99.90
23550;DHT22;11953;49.010;8.608;2022-07-29T01:47:07;20.50;99.90
23550;DHT22;11953;49.010;8.608;2022-07-29T01:49:58;20.40;99.90
23550;DHT22;11953;49.010;8.608;2022-07-29T01:52:52;20.30;99.90
23550;DHT22;11953;49.010;8.608;2022-07-29T01:55:44;20.30;99.90
23550;DHT22;11953;49.010;8.608;2022-07-29T01:58:32;20.40;99.90
23550;DHT22;11953;49.010;8.608;2022-07-29T02:01:22;20.40;99.90
23550;DHT22;11953;49.010;8.608;2022-07-29T02:04:12;20.50;99.90
23550;DHT22;11953;49.010;8.608;2022-07-29T02:07:18;20.40;99.90
23550;DHT22;11953;49.010;8.608;2022-07-29T02:10:07;20.40;99.90
23550;DHT22;11953;49.010;8.608;2022-07-29T02:12:56;20.40;99.90
23550;DHT22;11953;49.010;8.608;2022-07-29T02:15:44;20.50;99.90
23550;DHT22;11953;49.010;8.608;2022-07-29T02:18:31;20.60;99.90
23550;DHT22;11953;49.010;8.608;2022-07-29T02:21:23;20.70;99.90
23550;DHT22;11953;49.010;8.608;2022-07-29T02:24:12;20.80;99.90
23550;DHT22;11953;49.010;8.608;2022-07-29T02:27:00;20.70;99.90
23550;DHT22;11953;49.010;8.608;2022-07-29T02:29:49;20.80;99.90
23550;DHT22;11953;49.010;8.608;2022-07-29T02:32:37;20.80;99.90
23550;DHT22;11953;49.010;8.608;2022-07-29T02:35:27;20.90;99.90
23550;DHT22;11953;49.010;8.608;2022-07-29T02:38:21;20.90;99.90
23550;DHT22;11953;49.010;8.608;2022-07-29T02:41:29;20.90;99.90
23550;DHT22;11953;49.010;8.608;2022-07-29T02:44:19;20.90;99.90
23550;DHT22;11953;49.010;8.608;2022-07-29T02:47:11;20.80;99.90
23550;DHT22;11953;49.010;8.608;2022-07-29T02:50:02;20.70;99.90
23550;DHT22;11953;49.010;8.608;2022-07-29T02:52:56;20.40;99.90
23550;DHT22;11953;49.010;8.608;2022-07-29T02:55:49;20.30;99.90
23550;DHT22;11953;49.010;8.608;2022-07-29T02:58:40;20.30;99.90
23550;DHT22;11953;49.010;8.608;2022-07-29T03:01:31;20.40;99.90
23550;DHT22;11953;49.010;8.608;2022-07-29T03:04:20;20.30;99.90
23550;DHT22;11953;49.010;8.608;2022-07-29T03:07:09;20.30;99.90
23550;DHT22;11953;49.010;8.608;2022-07-29T03:09:56;20.20;99.90
23550;DHT22;11953;49.010;8.608;2022-07-29T03:12:46;20.10;99.90
23550;DHT22;11953;49.010;8.608;2022-07-29T03:15:34;20.10;99.90
23550;DHT22;11953;49.010;8.608;2022-07-29T03:18:21;20.30;99.90
23550;DHT22;11953;49.010;8.608;2022-07-29T03:21:09;20.30;99.90
23550;DHT22;11953;49.010;8.608;2022-07-29T03:23:55;20.40;99.90
23550;DHT22;11953;49.010;8.608;2022-07-29T03:26:42;20.50;99.90
23550;DHT22;11953;49.010;8.608;2022-07-29T03:29:31;20.60;99.90
23550;DHT22;11953;49.010;8.608;2022-07-29T03:32:19;20.60;99.90
23550;DHT22;11953;49.010;8.608;2022-07-29T03:35:09;20.60;99.90
23550;DHT22;11953;49.010;8.608;2022-07-29T03:37:56;20.60;99.90
23550;DHT22;11953;49.010;8.608;2022-07-29T03:40:48;20.60;99.90
23550;DHT22;11953;49.010;8.608;2022-07-29T03:43:38;20.80;99.90
23550;DHT22;11953;49.010;8.608;2022-07-29T03:46:36;20.80;99.90
23550;DHT22;11953;49.010;8.608;2022-07-29T03:49:23;20.80;99.90
23550;DHT22;11953;49.010;8.608;2022-07-29T03:52:10;20.70;99.90
23550;DHT22;11953;49.010;8.608;2022-07-29T03:54:57;20.70;99.90
23550;DHT22;11953;49.010;8.608;2022-07-29T03:57:45;20.70;99.90
23550;DHT22;11953;49.010;8.608;2022-07-29T04:00:33;20.70;99.90
23550;DHT22;11953;49.010;8.608;2022-07-29T04:03:22;20.60;99.90
23550;DHT22;11953;49.010;8.608;2022-07-29T04:06:09;20.60;99.90
23550;DHT22;11953;49.010;8.608;2022-07-29T04:08:56;20.60;99.90
23550;DHT22;11953;49.010;8.608;2022-07-29T04:11:43;20.60;99.90
23550;DHT22;11953;49.010;8.608;2022-07-29T04:14:48;20.60;99.90
23550;DHT22;11953;49.010;8.608;2022-07-29T04:17:35;20.80;99.90
23550;DHT22;11953;49.010;8.608;2022-07-29T04:20:24;20.70;99.90
23550;DHT22;11953;49.010;8.608;2022-07-29T04:23:11;20.60;99.90
23550;DHT22;11953;49.010;8.608;2022-07-29T04:25:57;20.60;99.90
23550;DHT22;11953;49.010;8.608;2022-07-29T04:28:44;20.40;99.90
23550;DHT22;11953;49.010;8.608;2022-07-29T04:31:30;20.40;99.90
23550;DHT22;11953;49.010;8.608;2022-07-29T04:34:17;20.40;99.90
23550;DHT22;11953;49.010;8.608;2022-07-29T04:37:06;20.50;99.90
23550;DHT22;11953;49.010;8.608;2022-07-29T04:39:53;20.50;99.90
23550;DHT22;11953;49.010;8.608;2022-07-29T04:42:40;20.70;99.90
23550;DHT22;11953;49.010;8.608;2022-07-29T04:45:30;20.90;99.90
23550;DHT22;11953;49.010;8.608;2022-07-29T04:48:18;21.10;99.90
23550;DHT22;11953;49.010;8.608;2022-07-29T04:51:13;21.10;99.90
23550;DHT22;11953;49.010;8.608;2022-07-29T04:54:01;21.30;99.90
23550;DHT22;11953;49.010;8.608;2022-07-29T04:56:47;21.20;99.90
23550;DHT22;11953;49.010;8.608;2022-07-29T04:59:34;21.20;99.90
23550;DHT22;11953;49.010;8.608;2022-07-29T05:02:20;21.10;99.90
23550;DHT22;11953;49.010;8.608;2022-07-29T05:05:08;21.10;99.90
23550;DHT22;11953;49.010;8.608;2022-07-29T05:07:54;21.10;99.90
23550;DHT22;11953;49.010;8.608;2022-07-29T05:10:43;21.20;99.90
23550;DHT22;11953;49.010;8.608;2022-07-29T05:13:30;21.30;99.90
23550;DHT22;11953;49.010;8.608;2022-07-29T05:16:30;21.70;99.90
23550;DHT22;11953;49.010;8.608;2022-07-29T05:19:16;22.00;99.90
23550;DHT22;11953;49.010;8.608;2022-07-29T05:22:03;22.40;99.90
23550;DHT22;11953;49.010;8.608;2022-07-29T05:24:50;22.80;99.90
23550;DHT22;11953;49.010;8.608;2022-07-29T05:27:38;23.30;99.90
23550;DHT22;11953;49.010;8.608;2022-07-29T05:30:25;23.80;99.90
23550;DHT22;11953;49.010;8.608;2022-07-29T05:33:12;24.40;99.90
23550;DHT22;11953;49.010;8.608;2022-07-29T05:36:19;24.60;99.90
23550;DHT22;11953;49.010;8.608;2022-07-29T05:39:06;24.30;99.90
23550;DHT22;11953;49.010;8.608;2022-07-29T05:41:52;23.90;99.90
23550;DHT22;11953;49.010;8.608;2022-07-29T05:44:40;23.70;99.90
23550;DHT22;11953;49.010;8.608;2022-07-29T05:47:27;23.50;99.90
23550;DHT22;11953;49.010;8.608;2022-07-29T05:50:14;23.40;99.90
23550;DHT22;11953;49.010;8.608;2022-07-29T05:53:00;23.50;99.90
23550;DHT22;11953;49.010;8.608;2022-07-29T05:56:05;23.80;99.90
23550;DHT22;11953;49.010;8.608;2022-07-29T05:58:52;24.50;99.90
23550;DHT22;11953;49.010;8.608;2022-07-29T06:01:40;24.70;99.90
23550;DHT22;11953;49.010;8.608;2022-07-29T06:04:27;24.60;99.90
23550;DHT22;11953;49.010;8.608;2022-07-29T06:07:14;24.90;99.90
23550;DHT22;11953;49.010;8.608;2022-07-29T06:10:02;25.10;99.90
23550;DHT22;11953;49.010;8.608;2022-07-29T06:12:48;25.40;99.90
23550;DHT22;11953;49.010;8.608;2022-07-29T06:15:35;25.20;99.90
23550;DHT22;11953;49.010;8.608;2022-07-29T06:18:23;25.20;99.90
23550;DHT22;11953;49.010;8.608;2022-07-29T06:21:10;25.80;99.90
23550;DHT22;11953;49.010;8.608;2022-07-29T06:23:57;26.30;99.90
23550;DHT22;11953;49.010;8.608;2022-07-29T06:26:44;26.30;99.90
23550;DHT22;11953;49.010;8.608;2022-07-29T06:29:30;25.90;99.90
23550;DHT22;11953;49.010;8.608;2022-07-29T06:32:17;25.80;99.90
23550;DHT22;11953;49.010;8.608;2022-07-29T06:35:09;26.00;99.90
23550;DHT22;11953;49.010;8.608;2022-07-29T06:38:15;25.70;99.90
23550;DHT22;11953;49.010;8.608;2022-07-29T06:41:16;25.50;99.90
23550;DHT22;11953;49.010;8.608;2022-07-29T06:44:03;25.30;99.90
23550;DHT22;11953;49.010;8.608;2022-07-29T06:46:51;25.10;99.90
23550;DHT22;11953;49.010;8.608;2022-07-29T06:49:38;25.00;99.90
23550;DHT22;11953;49.010;8.608;2022-07-29T06:52:26;25.10;99.90
23550;DHT22;11953;49.010;8.608;2022-07-29T06:55:13;25.00;99.90
23550;DHT22;11953;49.010;8.608;2022-07-29T06:58:10;25.20;99.90
23550;DHT22;11953;49.010;8.608;2022-07-29T07:00:58;25.50;99.90
23550;DHT22;11953;49.010;8.608;2022-07-29T07:03:44;25.50;99.90
23550;DHT22;11953;49.010;8.608;2022-07-29T07:06:31;25.60;99.90
23550;DHT22;11953;49.010;8.608;2022-07-29T07:09:19;25.70;99.90
23550;DHT22;11953;49.010;8.608;2022-07-29T07:12:06;25.80;99.90
23550;DHT22;11953;49.010;8.608;2022-07-29T07:14:52;25.80;99.90
23550;DHT22;11953;49.010;8.608;2022-07-29T07:17:39;25.80;99.90
23550;DHT22;11953;49.010;8.608;2022-07-29T07:20:25;25.90;99.90
23550;DHT22;11953;49.010;8.608;2022-07-29T07:23:13;26.00;99.90
23550;DHT22;11953;49.010;8.608;2022-07-29T07:26:01;26.40;99.90
23550;DHT22;11953;49.010;8.608;2022-07-29T07:28:48;27.00;99.90
23550;DHT22;11953;49.010;8.608;2022-07-29T07:31:36;27.40;99.90
23550;DHT22;11953;49.010;8.608;2022-07-29T07:34:23;27.30;99.90
23550;DHT22;11953;49.010;8.608;2022-07-29T07:37:14;27.70;99.60
23550;DHT22;11953;49.010;8.608;2022-07-29T07:40:01;28.70;98.80
23550;DHT22;11953;49.010;8.608;2022-07-29T07:42:49;28.70;97.60
23550;DHT22;11953;49.010;8.608;2022-07-29T07:45:36;28.30;97.90
23550;DHT22;11953;49.010;8.608;2022-07-29T07:48:23;27.80;98.50
23550;DHT22;11953;49.010;8.608;2022-07-29T07:51:09;27.70;98.80
23550;DHT22;11953;49.010;8.608;2022-07-29T07:53:56;27.80;98.70
23550;DHT22;11953;49.010;8.608;2022-07-29T07:56:43;28.40;98.30
23550;DHT22;11953;49.010;8.608;2022-07-29T07:59:34;29.10;97.90
23550;DHT22;11953;49.010;8.608;2022-07-29T08:02:21;29.60;96.70
23550;DHT22;11953;49.010;8.608;2022-07-29T08:05:08;30.30;96.20
23550;DHT22;11953;49.010;8.608;2022-07-29T08:07:57;30.60;95.70
23550;DHT22;11953;49.010;8.608;2022-07-29T08:10:43;30.60;95.30
23550;DHT22;11953;49.010;8.608;2022-07-29T08:13:40;30.10;95.80
23550;DHT22;11953;49.010;8.608;2022-07-29T08:16:29;30.10;95.50
23550;DHT22;11953;49.010;8.608;2022-07-29T08:19:16;30.80;94.90
23550;DHT22;11953;49.010;8.608;2022-07-29T08:22:02;31.50;93.80
23550;DHT22;11953;49.010;8.608;2022-07-29T08:24:49;31.20;93.50
23550;DHT22;11953;49.010;8.608;2022-07-29T08:27:39;30.40;93.90
23550;DHT22;11953;49.010;8.608;2022-07-29T08:30:28;29.80;94.40
23550;DHT22;11953;49.010;8.608;2022-07-29T08:33:17;29.50;94.70
23550;DHT22;11953;49.010;8.608;2022-07-29T08:36:04;29.60;95.00
23550;DHT22;11953;49.010;8.608;2022-07-29T08:38:52;30.10;95.10
23550;DHT22;11953;49.010;8.608;2022-07-29T08:41:39;31.00;94.60
23550;DHT22;11953;49.010;8.608;2022-07-29T08:44:42;31.50;93.70
23550;DHT22;11953;49.010;8.608;2022-07-29T08:47:29;31.20;93.00
23550;DHT22;11953;49.010;8.608;2022-07-29T08:50:17;30.90;93.50
23550;DHT22;11953;49.010;8.608;2022-07-29T08:53:05;31.00;92.90
23550;DHT22;11953;49.010;8.608;2022-07-29T08:55:53;31.70;91.60
23550;DHT22;11953;49.010;8.608;2022-07-29T08:58:41;32.10;91.20
23550;DHT22;11953;49.010;8.608;2022-07-29T09:01:37;32.70;90.50
23550;DHT22;11953;49.010;8.608;2022-07-29T09:04:32;33.00;88.20
23550;DHT22;11953;49.010;8.608;2022-07-29T09:07:22;33.20;85.30
23550;DHT22;11953;49.010;8.608;2022-07-29T09:10:19;32.50;84.70
23550;DHT22;11953;49.010;8.608;2022-07-29T09:13:06;31.20;85.20
23550;DHT22;11953;49.010;8.608;2022-07-29T09:15:53;30.50;87.50
23550;DHT22;11953;49.010;8.608;2022-07-29T09:18:41;30.00;87.70
23550;DHT22;11953;49.010;8.608;2022-07-29T09:21:40;30.10;88.40
23550;DHT22;11953;49.010;8.608;2022-07-29T09:24:49;31.10;86.60
23550;DHT22;11953;49.010;8.608;2022-07-29T09:27:35;32.10;84.90
23550;DHT22;11953;49.010;8.608;2022-07-29T09:30:22;32.70;83.10
23550;DHT22;11953;49.010;8.608;2022-07-29T09:33:16;33.00;83.10
23550;DHT22;11953;49.010;8.608;2022-07-29T09:36:04;33.60;80.40
23550;DHT22;11953;49.010;8.608;2022-07-29T09:38:57;33.20;80.70
23550;DHT22;11953;49.010;8.608;2022-07-29T09:41:48;33.30;79.20
23550;DHT22;11953;49.010;8.608;2022-07-29T09:44:45;32.90;78.20
23550;DHT22;11953;49.010;8.608;2022-07-29T09:47:41;33.40;77.80
23550;DHT22;11953;49.010;8.608;2022-07-29T09:50:38;33.80;76.90
23550;DHT22;11953;49.010;8.608;2022-07-29T09:53:32;34.20;75.80
23550;DHT22;11953;49.010;8.608;2022-07-29T09:56:19;34.20;73.80
23550;DHT22;11953;49.010;8.608;2022-07-29T09:59:08;34.10;74.20
23550;DHT22;11953;49.010;8.608;2022-07-29T10:01:56;34.30;74.40
23550;DHT22;11953;49.010;8.608;2022-07-29T10:04:44;34.40;74.00
23550;DHT22;11953;49.010;8.608;2022-07-29T10:07:44;33.90;72.90
23550;DHT22;11953;49.010;8.608;2022-07-29T10:10:38;33.90;72.00
23550;DHT22;11953;49.010;8.608;2022-07-29T10:13:25;33.70;72.20
23550;DHT22;11953;49.010;8.608;2022-07-29T10:16:14;33.40;72.30
23550;DHT22;11953;49.010;8.608;2022-07-29T10:19:02;33.30;72.70
23550;DHT22;11953;49.010;8.608;2022-07-29T10:21:49;33.00;72.10
23550;DHT22;11953;49.010;8.608;2022-07-29T10:24:42;32.70;72.40
23550;DHT22;11953;49.010;8.608;2022-07-29T10:27:30;31.90;74.50
23550;DHT22;11953;49.010;8.608;2022-07-29T10:30:18;31.50;74.50
23550;DHT22;11953;49.010;8.608;2022-07-29T10:33:25;31.30;76.50
23550;DHT22;11953;49.010;8.608;2022-07-29T10:36:32;32.20;75.70
23550;DHT22;11953;49.010;8.608;2022-07-29T10:39:37;32.70;74.60
23550;DHT22;11953;49.010;8.608;2022-07-29T10:42:40;32.60;74.30
23550;DHT22;11953;49.010;8.608;2022-07-29T10:45:29;32.40;74.70
23550;DHT22;11953;49.010;8.608;2022-07-29T10:48:17;32.20;74.10
23550;DHT22;11953;49.010;8.608;2022-07-29T10:51:07;32.10;74.10
23550;DHT22;11953;49.010;8.608;2022-07-29T10:53:57;32.50;74.10
23550;DHT22;11953;49.010;8.608;2022-07-29T10:56:45;32.80;73.40
23550;DHT22;11953;49.010;8.608;2022-07-29T10:59:32;33.40;72.90
23550;DHT22;11953;49.010;8.608;2022-07-29T11:02:42;33.60;71.60
23550;DHT22;11953;49.010;8.608;2022-07-29T11:05:51;34.10;70.60
23550;DHT22;11953;49.010;8.608;2022-07-29T11:08:39;34.20;69.90
23550;DHT22;11953;49.010;8.608;2022-07-29T11:11:32;34.40;68.90
23550;DHT22;11953;49.010;8.608;2022-07-29T11:18:04;34.80;69.00
23550;DHT22;11953;49.010;8.608;2022-07-29T11:20:52;34.70;67.50
23550;DHT22;11953;49.010;8.608;2022-07-29T11:23:41;34.80;66.50
23550;DHT22;11953;49.010;8.608;2022-07-29T11:26:30;34.50;68.10
23550;DHT22;11953;49.010;8.608;2022-07-29T11:29:20;34.70;66.50
23550;DHT22;11953;49.010;8.608;2022-07-29T11:32:12;34.30;63.80
23550;DHT22;11953;49.010;8.608;2022-07-29T11:35:12;34.40;63.90
23550;DHT22;11953;49.010;8.608;2022-07-29T11:38:25;34.60;64.10
23550;DHT22;11953;49.010;8.608;2022-07-29T11:41:23;34.60;63.30
23550;DHT22;11953;49.010;8.608;2022-07-29T11:44:11;34.50;63.30
23550;DHT22;11953;49.010;8.608;2022-07-29T11:47:02;34.20;63.30
23550;DHT22;11953;49.010;8.608;2022-07-29T11:49:51;34.60;64.10
23550;DHT22;11953;49.010;8.608;2022-07-29T11:52:46;34.50;64.30
23550;DHT22;11953;49.010;8.608;2022-07-29T11:55:37;33.80;63.50
23550;DHT22;11953;49.010;8.608;2022-07-29T11:58:36;33.30;64.00
23550;DHT22;11953;49.010;8.608;2022-07-29T12:01:24;33.20;63.90
23550;DHT22;11953;49.010;8.608;2022-07-29T12:04:12;32.90;65.90
23550;DHT22;11953;49.010;8.608;2022-07-29T12:06:58;32.50;64.80
23550;DHT22;11953;49.010;8.608;2022-07-29T12:09:50;32.10;66.90
23550;DHT22;11953;49.010;8.608;2022-07-29T12:12:42;32.10;66.70
23550;DHT22;11953;49.010;8.608;2022-07-29T12:15:30;32.10;66.60
23550;DHT22;11953;49.010;8.608;2022-07-29T12:18:32;32.10;66.80
23550;DHT22;11953;49.010;8.608;2022-07-29T12:21:18;32.00;67.60
23550;DHT22;11953;49.010;8.608;2022-07-29T12:24:10;31.70;67.10
23550;DHT22;11953;49.010;8.608;2022-07-29T12:26:58;31.50;66.80
23550;DHT22;11953;49.010;8.608;2022-07-29T12:29:56;31.30;67.70
23550;DHT22;11953;49.010;8.608;2022-07-29T12:32:44;31.10;68.10
23550;DHT22;11953;49.010;8.608;2022-07-29T12:35:31;30.90;66.80
23550;DHT22;11953;49.010;8.608;2022-07-29T12:38:19;30.80;67.50
23550;DHT22;11953;49.010;8.608;2022-07-29T12:41:06;30.80;68.30
23550;DHT22;11953;49.010;8.608;2022-07-29T12:43:54;30.80;68.70
23550;DHT22;11953;49.010;8.608;2022-07-29T12:46:42;30.70;69.00
23550;DHT22;11953;49.010;8.608;2022-07-29T12:49:31;30.60;68.00
23550;DHT22;11953;49.010;8.608;2022-07-29T12:52:27;30.60;68.50
23550;DHT22;11953;49.010;8.608;2022-07-29T12:55:14;30.70;69.00
23550;DHT22;11953;49.010;8.608;2022-07-29T12:58:00;30.70;69.10
23550;DHT22;11953;49.010;8.608;2022-07-29T13:01:02;30.80;68.30
23550;DHT22;11953;49.010;8.608;2022-07-29T13:04:02;30.80;68.50
23550;DHT22;11953;49.010;8.608;2022-07-29T13:06:58;30.60;67.60
23550;DHT22;11953;49.010;8.608;2022-07-29T13:09:46;30.70;68.00
23550;DHT22;11953;49.010;8.608;2022-07-29T13:12:33;30.70;69.10
23550;DHT22;11953;49.010;8.608;2022-07-29T13:15:20;30.90;68.60
23550;DHT22;11953;49.010;8.608;2022-07-29T13:18:28;30.90;68.00
23550;DHT22;11953;49.010;8.608;2022-07-29T13:21:16;30.80;65.80
23550;DHT22;11953;49.010;8.608;2022-07-29T13:24:04;30.70;66.80
23550;DHT22;11953;49.010;8.608;2022-07-29T13:26:51;30.70;66.30
23550;DHT22;11953;49.010;8.608;2022-07-29T13:29:37;30.60;66.00
23550;DHT22;11953;49.010;8.608;2022-07-29T13:32:26;30.60;66.30
23550;DHT22;11953;49.010;8.608;2022-07-29T13:35:14;30.70;66.20
23550;DHT22;11953;49.010;8.608;2022-07-29T13:38:02;30.80;66.70
23550;DHT22;11953;49.010;8.608;2022-07-29T13:40:49;30.70;67.40
23550;DHT22;11953;49.010;8.608;2022-07-29T13:43:36;30.80;66.40
23550;DHT22;11953;49.010;8.608;2022-07-29T13:46:23;30.70;66.70
23550;DHT22;11953;49.010;8.608;2022-07-29T13:49:09;30.50;64.50
23550;DHT22;11953;49.010;8.608;2022-07-29T13:51:57;30.40;64.80
23550;DHT22;11953;49.010;8.608;2022-07-29T13:54:46;30.40;65.70
23550;DHT22;11953;49.010;8.608;2022-07-29T13:57:32;30.20;66.30
23550;DHT22;11953;49.010;8.608;2022-07-29T14:00:19;30.20;65.40
23550;DHT22;11953;49.010;8.608;2022-07-29T14:03:06;30.00;65.40
23550;DHT22;11953;49.010;8.608;2022-07-29T14:05:53;30.00;65.20
23550;DHT22;11953;49.010;8.608;2022-07-29T14:08:39;30.00;65.10
23550;DHT22;11953;49.010;8.608;2022-07-29T14:11:27;30.00;64.80
23550;DHT22;11953;49.010;8.608;2022-07-29T14:14:13;30.10;65.80
23550;DHT22;11953;49.010;8.608;2022-07-29T14:17:00;30.20;65.10
23550;DHT22;11953;49.010;8.608;2022-07-29T14:19:48;30.30;65.50
23550;DHT22;11953;49.010;8.608;2022-07-29T14:22:35;30.40;64.20
23550;DHT22;11953;49.010;8.608;2022-07-29T14:25:27;30.40;63.20
23550;DHT22;11953;49.010;8.608;2022-07-29T14:28:14;30.30;63.90
23550;DHT22;11953;49.010;8.608;2022-07-29T14:31:01;30.20;63.90
23550;DHT22;11953;49.010;8.608;2022-07-29T14:33:48;30.30;64.30
23550;DHT22;11953;49.010;8.608;2022-07-29T14:36:35;30.20;64.30
23550;DHT22;11953;49.010;8.608;2022-07-29T14:39:22;30.10;63.60
23550;DHT22;11953;49.010;8.608;2022-07-29T14:42:16;30.10;63.80
23550;DHT22;11953;49.010;8.608;2022-07-29T14:45:04;30.10;63.20
23550;DHT22;11953;49.010;8.608;2022-07-29T14:47:52;30.10;63.00
23550;DHT22;11953;49.010;8.608;2022-07-29T14:50:42;30.00;63.20
23550;DHT22;11953;49.010;8.608;2022-07-29T14:53:29;30.20;63.20
23550;DHT22;11953;49.010;8.608;2022-07-29T14:56:16;30.10;62.80
23550;DHT22;11953;49.010;8.608;2022-07-29T14:59:21;30.10;62.90
23550;DHT22;11953;49.010;8.608;2022-07-29T15:02:09;30.00;63.80
23550;DHT22;11953;49.010;8.608;2022-07-29T15:04:57;29.90;63.60
23550;DHT22;11953;49.010;8.608;2022-07-29T15:07:44;29.80;63.40
23550;DHT22;11953;49.010;8.608;2022-07-29T15:10:30;29.60;63.80
23550;DHT22;11953;49.010;8.608;2022-07-29T15:13:17;29.70;63.70
23550;DHT22;11953;49.010;8.608;2022-07-29T15:16:05;29.70;63.00
23550;DHT22;11953;49.010;8.608;2022-07-29T15:18:53;29.60;62.70
23550;DHT22;11953;49.010;8.608;2022-07-29T15:21:45;29.60;63.00
23550;DHT22;11953;49.010;8.608;2022-07-29T15:24:33;29.70;62.50
23550;DHT22;11953;49.010;8.608;2022-07-29T15:27:20;29.60;62.50
23550;DHT22;11953;49.010;8.608;2022-07-29T15:30:08;29.50;62.40
23550;DHT22;11953;49.010;8.608;2022-07-29T15:33:12;29.50;63.00
23550;DHT22;11953;49.010;8.608;2022-07-29T15:36:00;29.50;62.30
23550;DHT22;11953;49.010;8.608;2022-07-29T15:38:46;29.40;61.80
23550;DHT22;11953;49.010;8.608;2022-07-29T15:41:36;29.30;61.50
23550;DHT22;11953;49.010;8.608;2022-07-29T15:44:22;29.50;62.00
23550;DHT22;11953;49.010;8.608;2022-07-29T15:47:09;29.50;62.10
23550;DHT22;11953;49.010;8.608;2022-07-29T15:49:55;29.50;60.80
23550;DHT22;11953;49.010;8.608;2022-07-29T15:52:43;29.60;60.60
23550;DHT22;11953;49.010;8.608;2022-07-29T15:55:30;29.50;59.90
23550;DHT22;11953;49.010;8.608;2022-07-29T15:58:17;29.30;58.90
23550;DHT22;11953;49.010;8.608;2022-07-29T16:01:03;29.30;59.10
23550;DHT22;11953;49.010;8.608;2022-07-29T16:03:50;29.30;58.60
23550;DHT22;11953;49.010;8.608;2022-07-29T16:06:37;29.40;59.00
23550;DHT22;11953;49.010;8.608;2022-07-29T16:09:25;29.30;59.70
23550;DHT22;11953;49.010;8.608;2022-07-29T16:12:13;29.40;59.60
23550;DHT22;11953;49.010;8.608;2022-07-29T16:15:00;29.40;59.20
23550;DHT22;11953;49.010;8.608;2022-07-29T16:17:53;29.30;59.20
23550;DHT22;11953;49.010;8.608;2022-07-29T16:20:42;29.10;59.00
23550;DHT22;11953;49.010;8.608;2022-07-29T16:23:29;29.00;58.90
23550;DHT22;11953;49.010;8.608;2022-07-29T16:26:17;29.00;59.30
23550;DHT22;11953;49.010;8.608;2022-07-29T16:29:04;29.00;59.10
23550;DHT22;11953;49.010;8.608;2022-07-29T16:31:51;29.00;58.50
23550;DHT22;11953;49.010;8.608;2022-07-29T16:34:38;29.00;58.80
23550;DHT22;11953;49.010;8.608;2022-07-29T16:37:26;28.90;59.00
23550;DHT22;11953;49.010;8.608;2022-07-29T16:40:17;28.90;58.90
23550;DHT22;11953;49.010;8.608;2022-07-29T16:43:05;29.00;58.80
23550;DHT22;11953;49.010;8.608;2022-07-29T16:45:52;29.00;58.40
23550;DHT22;11953;49.010;8.608;2022-07-29T16:48:39;29.00;58.20
23550;DHT22;11953;49.010;8.608;2022-07-29T16:51:26;29.00;59.00
23550;DHT22;11953;49.010;8.608;2022-07-29T16:54:14;29.00;59.70
23550;DHT22;11953;49.010;8.608;2022-07-29T16:57:01;28.90;59.40
23550;DHT22;11953;49.010;8.608;2022-07-29T16:59:50;28.80;58.50
23550;DHT22;11953;49.010;8.608;2022-07-29T17:02:37;28.70;58.70
23550;DHT22;11953;49.010;8.608;2022-07-29T17:05:23;28.70;58.90
23550;DHT22;11953;49.010;8.608;2022-07-29T17:08:10;28.70;59.40
23550;DHT22;11953;49.010;8.608;2022-07-29T17:10:58;28.70;59.80
23550;DHT22;11953;49.010;8.608;2022-07-29T17:13:45;28.80;59.80
23550;DHT22;11953;49.010;8.608;2022-07-29T17:16:33;28.70;60.50
23550;DHT22;11953;49.010;8.608;2022-07-29T17:19:20;28.70;59.80
23550;DHT22;11953;49.010;8.608;2022-07-29T17:22:07;28.60;60.60
23550;DHT22;11953;49.010;8.608;2022-07-29T17:25:04;28.60;60.90
23550;DHT22;11953;49.010;8.608;2022-07-29T17:27:51;28.60;60.60
23550;DHT22;11953;49.010;8.608;2022-07-29T17:30:45;28.70;61.20
23550;DHT22;11953;49.010;8.608;2022-07-29T17:33:33;28.60;61.40
23550;DHT22;11953;49.010;8.608;2022-07-29T17:36:20;28.50;61.90
23550;DHT22;11953;49.010;8.608;2022-07-29T17:39:11;28.50;62.30
23550;DHT22;11953;49.010;8.608;2022-07-29T17:41:58;28.60;62.30
23550;DHT22;11953;49.010;8.608;2022-07-29T17:44:44;28.70;63.00
23550;DHT22;11953;49.010;8.608;2022-07-29T17:47:31;28.60;66.90
23550;DHT22;11953;49.010;8.608;2022-07-29T17:50:19;28.50;64.20
23550;DHT22;11953;49.010;8.608;2022-07-29T17:53:06;28.40;64.60
23550;DHT22;11953;49.010;8.608;2022-07-29T17:56:01;28.50;65.60